Terminal Aerodrome Forecast
Issued by NWS

Current Version | Previous Version | Text Only | Print | Product List | Glossary On
Versions: 1 2 3 4 5 6 7 8 9 10 11 12 13 14 15 16 17
527
FTUS41 KCAR 271120
TAFBHB
TAF
KBHB 271120Z 2712/2812 35004KT P6SM FEW250
     FM272300 21007KT P6SM FEW250
     FM280700 21005KT 2SM BR FEW250
     FM280900 19006KT 1/2SM FG SCT250=

USA.gov is the U.S. government's official web portal to all federal, state and local government web resources and services.